sensor_id;sensor_type;location;lat;lon;timestamp;P1;durP1;ratioP1;P2;durP2;ratioP2
19235;SDS011;9752;54.270;12.470;2024-02-26T00:01:09;10.20;;;9.13;;
19235;SDS011;9752;54.270;12.470;2024-02-26T00:06:12;10.13;;;9.20;;
19235;SDS011;9752;54.270;12.470;2024-02-26T00:11:13;9.30;;;8.50;;
19235;SDS011;9752;54.270;12.470;2024-02-26T00:16:15;11.43;;;9.40;;
19235;SDS011;9752;54.270;12.470;2024-02-26T00:21:18;9.87;;;8.80;;
19235;SDS011;9752;54.270;12.470;2024-02-26T00:26:20;10.17;;;9.17;;
19235;SDS011;9752;54.270;12.470;2024-02-26T00:31:21;11.57;;;10.47;;
19235;SDS011;9752;54.270;12.470;2024-02-26T00:36:24;11.30;;;10.17;;
19235;SDS011;9752;54.270;12.470;2024-02-26T00:41:26;12.37;;;9.90;;
19235;SDS011;9752;54.270;12.470;2024-02-26T00:46:27;12.33;;;10.37;;
19235;SDS011;9752;54.270;12.470;2024-02-26T00:51:30;12.70;;;11.47;;
19235;SDS011;9752;54.270;12.470;2024-02-26T00:56:32;12.30;;;10.93;;
19235;SDS011;9752;54.270;12.470;2024-02-26T01:01:34;11.17;;;10.03;;
19235;SDS011;9752;54.270;12.470;2024-02-26T01:06:37;12.43;;;10.60;;
19235;SDS011;9752;54.270;12.470;2024-02-26T01:11:39;13.03;;;11.63;;
19235;SDS011;9752;54.270;12.470;2024-02-26T01:16:40;12.03;;;10.57;;
19235;SDS011;9752;54.270;12.470;2024-02-26T01:21:43;11.83;;;10.73;;
19235;SDS011;9752;54.270;12.470;2024-02-26T01:26:45;13.83;;;10.63;;
19235;SDS011;9752;54.270;12.470;2024-02-26T01:31:47;11.30;;;9.97;;
19235;SDS011;9752;54.270;12.470;2024-02-26T01:36:50;14.53;;;11.07;;
19235;SDS011;9752;54.270;12.470;2024-02-26T01:41:51;13.50;;;12.10;;
19235;SDS011;9752;54.270;12.470;2024-02-26T01:46:53;14.93;;;11.37;;
19235;SDS011;9752;54.270;12.470;2024-02-26T01:51:56;12.87;;;11.17;;
19235;SDS011;9752;54.270;12.470;2024-02-26T01:56:59;13.30;;;11.63;;
19235;SDS011;9752;54.270;12.470;2024-02-26T02:02:01;12.97;;;11.60;;
19235;SDS011;9752;54.270;12.470;2024-02-26T02:07:08;12.63;;;11.33;;
19235;SDS011;9752;54.270;12.470;2024-02-26T02:12:09;14.07;;;12.40;;
19235;SDS011;9752;54.270;12.470;2024-02-26T02:17:12;12.67;;;11.40;;
19235;SDS011;9752;54.270;12.470;2024-02-26T02:22:15;15.97;;;11.77;;
19235;SDS011;9752;54.270;12.470;2024-02-26T02:27:17;14.70;;;11.43;;
19235;SDS011;9752;54.270;12.470;2024-02-26T02:32:18;15.63;;;12.93;;
19235;SDS011;9752;54.270;12.470;2024-02-26T02:37:22;17.73;;;14.23;;
19235;SDS011;9752;54.270;12.470;2024-02-26T02:42:24;13.93;;;11.80;;
19235;SDS011;9752;54.270;12.470;2024-02-26T02:47:26;15.10;;;12.83;;
19235;SDS011;9752;54.270;12.470;2024-02-26T02:52:29;15.33;;;12.77;;
19235;SDS011;9752;54.270;12.470;2024-02-26T02:57:30;17.13;;;13.83;;
19235;SDS011;9752;54.270;12.470;2024-02-26T03:02:33;16.67;;;13.53;;
19235;SDS011;9752;54.270;12.470;2024-02-26T03:07:37;16.83;;;14.83;;
19235;SDS011;9752;54.270;12.470;2024-02-26T03:12:38;15.77;;;14.10;;
19235;SDS011;9752;54.270;12.470;2024-02-26T03:17:40;18.73;;;14.67;;
19235;SDS011;9752;54.270;12.470;2024-02-26T03:22:43;16.47;;;13.33;;
19235;SDS011;9752;54.270;12.470;2024-02-26T03:27:45;16.77;;;14.33;;
19235;SDS011;9752;54.270;12.470;2024-02-26T03:32:47;18.37;;;13.80;;
19235;SDS011;9752;54.270;12.470;2024-02-26T03:37:50;18.40;;;14.57;;
19235;SDS011;9752;54.270;12.470;2024-02-26T03:42:51;15.47;;;13.47;;
19235;SDS011;9752;54.270;12.470;2024-02-26T03:47:54;18.67;;;14.07;;
19235;SDS011;9752;54.270;12.470;2024-02-26T03:52:57;16.17;;;13.50;;
19235;SDS011;9752;54.270;12.470;2024-02-26T03:57:59;16.50;;;13.43;;
19235;SDS011;9752;54.270;12.470;2024-02-26T04:03:01;16.17;;;13.13;;
19235;SDS011;9752;54.270;12.470;2024-02-26T04:08:04;16.40;;;13.40;;
19235;SDS011;9752;54.270;12.470;2024-02-26T04:13:07;15.63;;;12.93;;
19235;SDS011;9752;54.270;12.470;2024-02-26T04:18:09;21.30;;;15.43;;
19235;SDS011;9752;54.270;12.470;2024-02-26T04:23:12;18.47;;;14.37;;
19235;SDS011;9752;54.270;12.470;2024-02-26T04:28:13;16.73;;;14.83;;
19235;SDS011;9752;54.270;12.470;2024-02-26T04:33:15;16.77;;;13.17;;
19235;SDS011;9752;54.270;12.470;2024-02-26T04:38:18;27.07;;;19.03;;
19235;SDS011;9752;54.270;12.470;2024-02-26T04:43:20;22.10;;;16.03;;
19235;SDS011;9752;54.270;12.470;2024-02-26T04:48:21;16.43;;;12.07;;
19235;SDS011;9752;54.270;12.470;2024-02-26T04:53:24;26.50;;;17.17;;
19235;SDS011;9752;54.270;12.470;2024-02-26T04:58:26;17.20;;;13.43;;
19235;SDS011;9752;54.270;12.470;2024-02-26T05:03:28;23.77;;;16.90;;
19235;SDS011;9752;54.270;12.470;2024-02-26T05:08:31;19.47;;;14.60;;
19235;SDS011;9752;54.270;12.470;2024-02-26T05:13:33;25.23;;;17.90;;
19235;SDS011;9752;54.270;12.470;2024-02-26T05:18:35;26.30;;;18.70;;
19235;SDS011;9752;54.270;12.470;2024-02-26T05:23:38;24.67;;;17.17;;
19235;SDS011;9752;54.270;12.470;2024-02-26T05:28:40;23.30;;;16.40;;
19235;SDS011;9752;54.270;12.470;2024-02-26T05:33:41;26.97;;;18.40;;
19235;SDS011;9752;54.270;12.470;2024-02-26T05:38:44;23.83;;;16.70;;
19235;SDS011;9752;54.270;12.470;2024-02-26T05:43:47;25.10;;;18.87;;
19235;SDS011;9752;54.270;12.470;2024-02-26T05:48:50;24.77;;;16.77;;
19235;SDS011;9752;54.270;12.470;2024-02-26T05:53:54;22.67;;;15.83;;
19235;SDS011;9752;54.270;12.470;2024-02-26T05:58:56;28.47;;;18.80;;
19235;SDS011;9752;54.270;12.470;2024-02-26T06:03:58;23.50;;;17.30;;
19235;SDS011;9752;54.270;12.470;2024-02-26T06:09:01;24.87;;;18.33;;
19235;SDS011;9752;54.270;12.470;2024-02-26T06:14:05;23.13;;;15.77;;
19235;SDS011;9752;54.270;12.470;2024-02-26T06:19:06;27.10;;;16.63;;
19235;SDS011;9752;54.270;12.470;2024-02-26T06:24:09;26.70;;;17.70;;
19235;SDS011;9752;54.270;12.470;2024-02-26T06:29:11;22.30;;;16.23;;
19235;SDS011;9752;54.270;12.470;2024-02-26T06:34:13;32.00;;;19.40;;
19235;SDS011;9752;54.270;12.470;2024-02-26T06:39:16;57.93;;;32.77;;
19235;SDS011;9752;54.270;12.470;2024-02-26T06:44:18;52.47;;;31.33;;
19235;SDS011;9752;54.270;12.470;2024-02-26T06:49:19;41.50;;;26.53;;
19235;SDS011;9752;54.270;12.470;2024-02-26T06:54:22;33.03;;;22.80;;
19235;SDS011;9752;54.270;12.470;2024-02-26T06:59:24;30.00;;;17.43;;
19235;SDS011;9752;54.270;12.470;2024-02-26T07:04:26;22.33;;;15.57;;
19235;SDS011;9752;54.270;12.470;2024-02-26T07:09:29;24.13;;;16.23;;
19235;SDS011;9752;54.270;12.470;2024-02-26T07:14:30;24.97;;;16.63;;
19235;SDS011;9752;54.270;12.470;2024-02-26T07:19:32;21.03;;;15.63;;
19235;SDS011;9752;54.270;12.470;2024-02-26T07:24:35;20.97;;;16.27;;
19235;SDS011;9752;54.270;12.470;2024-02-26T07:29:37;20.13;;;14.60;;
19235;SDS011;9752;54.270;12.470;2024-02-26T07:34:39;18.63;;;15.33;;
19235;SDS011;9752;54.270;12.470;2024-02-26T07:39:43;19.50;;;14.93;;
19235;SDS011;9752;54.270;12.470;2024-02-26T07:44:44;20.37;;;15.80;;
19235;SDS011;9752;54.270;12.470;2024-02-26T07:49:46;16.20;;;13.57;;
19235;SDS011;9752;54.270;12.470;2024-02-26T07:54:49;17.23;;;14.10;;
19235;SDS011;9752;54.270;12.470;2024-02-26T07:59:51;23.43;;;16.03;;
19235;SDS011;9752;54.270;12.470;2024-02-26T08:04:52;20.33;;;15.50;;
19235;SDS011;9752;54.270;12.470;2024-02-26T08:09:55;20.10;;;16.37;;
19235;SDS011;9752;54.270;12.470;2024-02-26T08:14:57;23.40;;;16.90;;
19235;SDS011;9752;54.270;12.470;2024-02-26T08:20:00;20.90;;;16.70;;
19235;SDS011;9752;54.270;12.470;2024-02-26T08:25:04;20.53;;;16.23;;
19235;SDS011;9752;54.270;12.470;2024-02-26T08:30:09;22.80;;;16.67;;
19235;SDS011;9752;54.270;12.470;2024-02-26T08:35:13;18.93;;;16.40;;
19235;SDS011;9752;54.270;12.470;2024-02-26T08:40:16;19.23;;;16.13;;
19235;SDS011;9752;54.270;12.470;2024-02-26T08:45:19;25.10;;;17.43;;
19235;SDS011;9752;54.270;12.470;2024-02-26T08:50:21;21.30;;;16.17;;
19235;SDS011;9752;54.270;12.470;2024-02-26T08:55:24;24.17;;;18.50;;
19235;SDS011;9752;54.270;12.470;2024-02-26T09:00:26;19.33;;;14.30;;
19235;SDS011;9752;54.270;12.470;2024-02-26T09:05:27;20.10;;;16.10;;
19235;SDS011;9752;54.270;12.470;2024-02-26T09:10:30;23.60;;;16.70;;
19235;SDS011;9752;54.270;12.470;2024-02-26T09:15:33;15.60;;;13.67;;
19235;SDS011;9752;54.270;12.470;2024-02-26T09:20:34;13.53;;;11.60;;
19235;SDS011;9752;54.270;12.470;2024-02-26T09:25:37;12.63;;;10.97;;
19235;SDS011;9752;54.270;12.470;2024-02-26T09:30:39;11.83;;;10.57;;
19235;SDS011;9752;54.270;12.470;2024-02-26T09:35:41;10.13;;;9.13;;
19235;SDS011;9752;54.270;12.470;2024-02-26T09:40:44;9.30;;;8.43;;
19235;SDS011;9752;54.270;12.470;2024-02-26T09:45:45;8.50;;;7.73;;
19235;SDS011;9752;54.270;12.470;2024-02-26T09:50:48;9.57;;;8.57;;
19235;SDS011;9752;54.270;12.470;2024-02-26T09:55:52;10.00;;;9.10;;
19235;SDS011;9752;54.270;12.470;2024-02-26T10:00:55;10.17;;;9.13;;
19235;SDS011;9752;54.270;12.470;2024-02-26T10:05:58;10.10;;;9.20;;
19235;SDS011;9752;54.270;12.470;2024-02-26T10:11:04;10.33;;;9.43;;
19235;SDS011;9752;54.270;12.470;2024-02-26T10:16:06;10.33;;;9.43;;
19235;SDS011;9752;54.270;12.470;2024-02-26T10:21:08;9.93;;;9.03;;
19235;SDS011;9752;54.270;12.470;2024-02-26T10:26:11;8.90;;;8.10;;
19235;SDS011;9752;54.270;12.470;2024-02-26T10:31:14;9.73;;;8.93;;
19235;SDS011;9752;54.270;12.470;2024-02-26T10:36:16;9.20;;;8.50;;
19235;SDS011;9752;54.270;12.470;2024-02-26T10:41:19;9.53;;;8.83;;
19235;SDS011;9752;54.270;12.470;2024-02-26T10:46:20;8.60;;;8.00;;
19235;SDS011;9752;54.270;12.470;2024-02-26T10:51:25;8.93;;;8.30;;
19235;SDS011;9752;54.270;12.470;2024-02-26T10:56:29;9.03;;;8.60;;
19235;SDS011;9752;54.270;12.470;2024-02-26T11:01:34;9.30;;;8.70;;
19235;SDS011;9752;54.270;12.470;2024-02-26T11:06:38;8.83;;;8.33;;
19235;SDS011;9752;54.270;12.470;2024-02-26T11:11:42;8.47;;;7.97;;
19235;SDS011;9752;54.270;12.470;2024-02-26T11:16:45;9.30;;;8.70;;
19235;SDS011;9752;54.270;12.470;2024-02-26T11:21:47;10.00;;;9.20;;
19235;SDS011;9752;54.270;12.470;2024-02-26T11:26:50;10.33;;;9.50;;
19235;SDS011;9752;54.270;12.470;2024-02-26T11:31:59;9.57;;;9.00;;
19235;SDS011;9752;54.270;12.470;2024-02-26T11:37:08;10.23;;;9.63;;
19235;SDS011;9752;54.270;12.470;2024-02-26T11:42:13;10.17;;;9.57;;
19235;SDS011;9752;54.270;12.470;2024-02-26T11:47:17;9.53;;;8.90;;
19235;SDS011;9752;54.270;12.470;2024-02-26T11:52:20;9.80;;;9.27;;
19235;SDS011;9752;54.270;12.470;2024-02-26T11:57:23;10.00;;;9.40;;
19235;SDS011;9752;54.270;12.470;2024-02-26T12:02:44;9.67;;;9.10;;
19235;SDS011;9752;54.270;12.470;2024-02-26T12:07:47;9.20;;;8.67;;
19235;SDS011;9752;54.270;12.470;2024-02-26T12:12:54;9.57;;;9.07;;
19235;SDS011;9752;54.270;12.470;2024-02-26T12:18:00;9.30;;;8.90;;
19235;SDS011;9752;54.270;12.470;2024-02-26T12:23:03;9.73;;;9.13;;
19235;SDS011;9752;54.270;12.470;2024-02-26T12:28:07;10.17;;;9.57;;
19235;SDS011;9752;54.270;12.470;2024-02-26T12:33:09;9.17;;;8.67;;
19235;SDS011;9752;54.270;12.470;2024-02-26T12:38:10;10.30;;;9.70;;
19235;SDS011;9752;54.270;12.470;2024-02-26T12:43:15;9.80;;;9.40;;
19235;SDS011;9752;54.270;12.470;2024-02-26T12:48:17;9.90;;;9.30;;
19235;SDS011;9752;54.270;12.470;2024-02-26T12:53:19;10.30;;;9.80;;
19235;SDS011;9752;54.270;12.470;2024-02-26T12:58:22;10.43;;;9.93;;
19235;SDS011;9752;54.270;12.470;2024-02-26T13:03:25;10.07;;;9.57;;
19235;SDS011;9752;54.270;12.470;2024-02-26T13:08:27;9.73;;;9.23;;
19235;SDS011;9752;54.270;12.470;2024-02-26T13:13:30;9.70;;;9.20;;
19235;SDS011;9752;54.270;12.470;2024-02-26T13:18:32;10.40;;;9.80;;
19235;SDS011;9752;54.270;12.470;2024-02-26T13:23:34;10.87;;;10.33;;
19235;SDS011;9752;54.270;12.470;2024-02-26T13:28:37;9.97;;;9.47;;
19235;SDS011;9752;54.270;12.470;2024-02-26T13:33:39;10.20;;;9.70;;
19235;SDS011;9752;54.270;12.470;2024-02-26T13:38:41;9.90;;;9.43;;
19235;SDS011;9752;54.270;12.470;2024-02-26T13:43:54;10.07;;;9.47;;
19235;SDS011;9752;54.270;12.470;2024-02-26T13:48:58;9.70;;;9.00;;
19235;SDS011;9752;54.270;12.470;2024-02-26T13:53:59;8.90;;;8.40;;
19235;SDS011;9752;54.270;12.470;2024-02-26T13:59:02;9.43;;;8.77;;
19235;SDS011;9752;54.270;12.470;2024-02-26T14:04:04;8.40;;;7.90;;
19235;SDS011;9752;54.270;12.470;2024-02-26T14:09:07;8.50;;;8.00;;
19235;SDS011;9752;54.270;12.470;2024-02-26T14:14:11;8.97;;;8.33;;
19235;SDS011;9752;54.270;12.470;2024-02-26T14:19:12;8.17;;;7.67;;
19235;SDS011;9752;54.270;12.470;2024-02-26T14:24:14;7.57;;;6.97;;
19235;SDS011;9752;54.270;12.470;2024-02-26T14:29:18;7.33;;;6.93;;
19235;SDS011;9752;54.270;12.470;2024-02-26T14:34:19;8.50;;;7.80;;
19235;SDS011;9752;54.270;12.470;2024-02-26T14:39:21;9.23;;;8.50;;
19235;SDS011;9752;54.270;12.470;2024-02-26T14:44:25;8.67;;;8.17;;
19235;SDS011;9752;54.270;12.470;2024-02-26T14:49:27;10.07;;;8.33;;
19235;SDS011;9752;54.270;12.470;2024-02-26T14:54:31;8.63;;;8.00;;
19235;SDS011;9752;54.270;12.470;2024-02-26T14:59:38;9.53;;;8.60;;
19235;SDS011;9752;54.270;12.470;2024-02-26T15:04:40;8.60;;;7.90;;
19235;SDS011;9752;54.270;12.470;2024-02-26T15:09:42;8.20;;;7.53;;
19235;SDS011;9752;54.270;12.470;2024-02-26T15:14:45;8.43;;;7.73;;
19235;SDS011;9752;54.270;12.470;2024-02-26T15:19:47;8.43;;;7.63;;
19235;SDS011;9752;54.270;12.470;2024-02-26T15:24:48;8.63;;;7.93;;
19235;SDS011;9752;54.270;12.470;2024-02-26T15:29:51;9.53;;;8.67;;
19235;SDS011;9752;54.270;12.470;2024-02-26T15:34:58;9.20;;;8.27;;
19235;SDS011;9752;54.270;12.470;2024-02-26T15:39:59;9.17;;;8.43;;
19235;SDS011;9752;54.270;12.470;2024-02-26T15:45:03;9.20;;;8.50;;
19235;SDS011;9752;54.270;12.470;2024-02-26T15:50:05;9.43;;;8.63;;
19235;SDS011;9752;54.270;12.470;2024-02-26T15:55:07;9.63;;;8.83;;
19235;SDS011;9752;54.270;12.470;2024-02-26T16:00:14;11.93;;;9.43;;
19235;SDS011;9752;54.270;12.470;2024-02-26T16:05:17;9.57;;;8.73;;
19235;SDS011;9752;54.270;12.470;2024-02-26T16:10:19;11.80;;;10.67;;
19235;SDS011;9752;54.270;12.470;2024-02-26T16:15:23;11.23;;;10.03;;
19235;SDS011;9752;54.270;12.470;2024-02-26T16:20:25;9.90;;;8.43;;
19235;SDS011;9752;54.270;12.470;2024-02-26T16:25:29;12.00;;;9.00;;
19235;SDS011;9752;54.270;12.470;2024-02-26T16:30:32;9.33;;;8.30;;
19235;SDS011;9752;54.270;12.470;2024-02-26T16:35:34;9.73;;;8.73;;
19235;SDS011;9752;54.270;12.470;2024-02-26T16:40:36;11.93;;;10.63;;
19235;SDS011;9752;54.270;12.470;2024-02-26T16:45:42;11.50;;;10.30;;
19235;SDS011;9752;54.270;12.470;2024-02-26T16:50:44;12.30;;;10.87;;
19235;SDS011;9752;54.270;12.470;2024-02-26T16:55:46;13.47;;;11.70;;
19235;SDS011;9752;54.270;12.470;2024-02-26T17:00:49;15.73;;;13.17;;
19235;SDS011;9752;54.270;12.470;2024-02-26T17:05:51;18.43;;;15.33;;
19235;SDS011;9752;54.270;12.470;2024-02-26T17:10:53;20.97;;;16.53;;
19235;SDS011;9752;54.270;12.470;2024-02-26T17:15:56;21.07;;;16.73;;
19235;SDS011;9752;54.270;12.470;2024-02-26T17:20:58;21.93;;;17.87;;
19235;SDS011;9752;54.270;12.470;2024-02-26T17:25:59;24.87;;;19.33;;
19235;SDS011;9752;54.270;12.470;2024-02-26T17:31:02;22.47;;;17.00;;
19235;SDS011;9752;54.270;12.470;2024-02-26T17:36:04;29.77;;;19.17;;
19235;SDS011;9752;54.270;12.470;2024-02-26T17:41:08;26.90;;;19.93;;
19235;SDS011;9752;54.270;12.470;2024-02-26T17:46:13;29.43;;;20.87;;
19235;SDS011;9752;54.270;12.470;2024-02-26T17:51:15;33.30;;;23.57;;
19235;SDS011;9752;54.270;12.470;2024-02-26T17:56:17;33.57;;;23.63;;
19235;SDS011;9752;54.270;12.470;2024-02-26T18:01:20;37.50;;;25.33;;
19235;SDS011;9752;54.270;12.470;2024-02-26T18:06:22;37.53;;;24.53;;
19235;SDS011;9752;54.270;12.470;2024-02-26T18:11:24;41.40;;;26.17;;
19235;SDS011;9752;54.270;12.470;2024-02-26T18:16:27;40.20;;;27.83;;
19235;SDS011;9752;54.270;12.470;2024-02-26T18:21:29;43.00;;;28.20;;
19235;SDS011;9752;54.270;12.470;2024-02-26T18:26:31;51.93;;;31.70;;
19235;SDS011;9752;54.270;12.470;2024-02-26T18:31:35;45.33;;;28.97;;
19235;SDS011;9752;54.270;12.470;2024-02-26T18:36:37;53.87;;;31.70;;
19235;SDS011;9752;54.270;12.470;2024-02-26T18:41:43;52.93;;;33.87;;
19235;SDS011;9752;54.270;12.470;2024-02-26T18:46:46;51.70;;;31.53;;
19235;SDS011;9752;54.270;12.470;2024-02-26T18:51:48;57.40;;;32.00;;
19235;SDS011;9752;54.270;12.470;2024-02-26T18:56:49;60.10;;;35.87;;
19235;SDS011;9752;54.270;12.470;2024-02-26T19:01:52;59.00;;;33.90;;
19235;SDS011;9752;54.270;12.470;2024-02-26T19:06:54;61.73;;;35.03;;
19235;SDS011;9752;54.270;12.470;2024-02-26T19:11:56;64.03;;;36.43;;
19235;SDS011;9752;54.270;12.470;2024-02-26T19:16:59;58.60;;;34.13;;
19235;SDS011;9752;54.270;12.470;2024-02-26T19:22:01;61.70;;;35.80;;
19235;SDS011;9752;54.270;12.470;2024-02-26T19:27:02;63.70;;;35.17;;
19235;SDS011;9752;54.270;12.470;2024-02-26T19:32:06;59.03;;;33.10;;
19235;SDS011;9752;54.270;12.470;2024-02-26T19:37:11;62.33;;;35.30;;
19235;SDS011;9752;54.270;12.470;2024-02-26T19:42:12;64.10;;;37.53;;
19235;SDS011;9752;54.270;12.470;2024-02-26T19:47:15;62.40;;;35.33;;
19235;SDS011;9752;54.270;12.470;2024-02-26T19:52:17;60.77;;;36.67;;
19235;SDS011;9752;54.270;12.470;2024-02-26T19:57:20;57.57;;;33.47;;
19235;SDS011;9752;54.270;12.470;2024-02-26T20:02:23;69.77;;;35.77;;
19235;SDS011;9752;54.270;12.470;2024-02-26T20:07:25;60.37;;;36.10;;
19235;SDS011;9752;54.270;12.470;2024-02-26T20:12:28;66.93;;;39.80;;
19235;SDS011;9752;54.270;12.470;2024-02-26T20:17:31;64.13;;;34.17;;
19235;SDS011;9752;54.270;12.470;2024-02-26T20:22:33;57.70;;;33.57;;
19235;SDS011;9752;54.270;12.470;2024-02-26T20:27:34;63.50;;;34.57;;
19235;SDS011;9752;54.270;12.470;2024-02-26T20:32:37;61.03;;;34.70;;
19235;SDS011;9752;54.270;12.470;2024-02-26T20:37:39;57.07;;;32.97;;
19235;SDS011;9752;54.270;12.470;2024-02-26T20:42:42;56.33;;;35.63;;
19235;SDS011;9752;54.270;12.470;2024-02-26T20:47:47;67.33;;;39.57;;
19235;SDS011;9752;54.270;12.470;2024-02-26T20:52:51;70.67;;;42.67;;
19235;SDS011;9752;54.270;12.470;2024-02-26T20:57:52;77.17;;;43.37;;
19235;SDS011;9752;54.270;12.470;2024-02-26T21:02:57;87.50;;;47.60;;
19235;SDS011;9752;54.270;12.470;2024-02-26T21:08:00;86.53;;;47.70;;
19235;SDS011;9752;54.270;12.470;2024-02-26T21:13:02;92.37;;;49.47;;
19235;SDS011;9752;54.270;12.470;2024-02-26T21:18:05;98.30;;;51.43;;
19235;SDS011;9752;54.270;12.470;2024-02-26T21:23:08;100.80;;;53.50;;
19235;SDS011;9752;54.270;12.470;2024-02-26T21:28:12;98.53;;;48.73;;
19235;SDS011;9752;54.270;12.470;2024-02-26T21:33:15;98.20;;;51.90;;
19235;SDS011;9752;54.270;12.470;2024-02-26T21:38:17;103.17;;;53.50;;
19235;SDS011;9752;54.270;12.470;2024-02-26T21:43:20;99.33;;;50.97;;
19235;SDS011;9752;54.270;12.470;2024-02-26T21:48:23;101.63;;;52.23;;
19235;SDS011;9752;54.270;12.470;2024-02-26T21:53:25;104.30;;;51.47;;
19235;SDS011;9752;54.270;12.470;2024-02-26T21:58:27;88.20;;;49.33;;
19235;SDS011;9752;54.270;12.470;2024-02-26T22:03:30;99.73;;;51.67;;
19235;SDS011;9752;54.270;12.470;2024-02-26T22:08:31;94.13;;;50.20;;
19235;SDS011;9752;54.270;12.470;2024-02-26T22:13:33;88.77;;;48.97;;
19235;SDS011;9752;54.270;12.470;2024-02-26T22:18:36;80.47;;;45.70;;
19235;SDS011;9752;54.270;12.470;2024-02-26T22:23:38;87.47;;;47.03;;
19235;SDS011;9752;54.270;12.470;2024-02-26T22:28:40;87.87;;;46.07;;
19235;SDS011;9752;54.270;12.470;2024-02-26T22:33:43;97.37;;;48.50;;
19235;SDS011;9752;54.270;12.470;2024-02-26T22:38:45;85.23;;;44.87;;
19235;SDS011;9752;54.270;12.470;2024-02-26T22:43:48;109.40;;;53.27;;
19235;SDS011;9752;54.270;12.470;2024-02-26T22:48:51;104.90;;;52.27;;
19235;SDS011;9752;54.270;12.470;2024-02-26T22:53:52;104.23;;;50.80;;
19235;SDS011;9752;54.270;12.470;2024-02-26T22:58:54;98.70;;;47.27;;
19235;SDS011;9752;54.270;12.470;2024-02-26T23:03:57;95.40;;;49.60;;
19235;SDS011;9752;54.270;12.470;2024-02-26T23:08:59;95.30;;;44.93;;
19235;SDS011;9752;54.270;12.470;2024-02-26T23:14:01;111.27;;;48.23;;
19235;SDS011;9752;54.270;12.470;2024-02-26T23:19:04;86.97;;;44.83;;
19235;SDS011;9752;54.270;12.470;2024-02-26T23:24:06;94.60;;;44.37;;
19235;SDS011;9752;54.270;12.470;2024-02-26T23:29:08;105.90;;;49.13;;
19235;SDS011;9752;54.270;12.470;2024-02-26T23:34:11;120.13;;;55.50;;
19235;SDS011;9752;54.270;12.470;2024-02-26T23:39:13;124.93;;;49.67;;
19235;SDS011;9752;54.270;12.470;2024-02-26T23:44:15;136.87;;;57.03;;
19235;SDS011;9752;54.270;12.470;2024-02-26T23:49:18;119.30;;;52.47;;
19235;SDS011;9752;54.270;12.470;2024-02-26T23:54:19;102.20;;;51.33;;
19235;SDS011;9752;54.270;12.470;2024-02-26T23:59:21;161.47;;;62.23;;
